Terminal Aerodrome Forecast
Issued by NWS

Home | Current Version | Previous Version | Text Only | Print | Product List | Glossary On
Versions: 1 2 3 4 5 6 7 8 9 10 11 12 13 14
000
FTUS46 KSEW 281200 RRA
TAFBLI
TAF
KBLI 281218Z 2812/2912 16008KT P6SM SCT050 BKN080 OVC200
     FM281600 16014KT P6SM -RA SCT022 OVC035
     FM281900 19012KT P6SM -SHRA BKN025 BKN040
     FM282200 19008KT P6SM VCSH SCT025 BKN040=

USA.gov is the U.S. government's official web portal to all federal, state and local government web resources and services.